sensor_id;sensor_type;location;lat;lon;timestamp;temperature;humidity
29663;DHT22;16578;53.266;7.920;2023-05-08T00:00:21;14.40;66.40
29663;DHT22;16578;53.266;7.920;2023-05-08T00:02:47;14.40;66.50
29663;DHT22;16578;53.266;7.920;2023-05-08T00:05:12;14.30;66.50
29663;DHT22;16578;53.266;7.920;2023-05-08T00:07:38;14.40;66.60
29663;DHT22;16578;53.266;7.920;2023-05-08T00:10:05;14.30;66.50
29663;DHT22;16578;53.266;7.920;2023-05-08T00:12:30;14.40;66.50
29663;DHT22;16578;53.266;7.920;2023-05-08T00:14:56;14.30;66.40
29663;DHT22;16578;53.266;7.920;2023-05-08T00:17:22;14.40;66.50
29663;DHT22;16578;53.266;7.920;2023-05-08T00:19:47;14.40;66.50
29663;DHT22;16578;53.266;7.920;2023-05-08T00:22:13;14.40;66.40
29663;DHT22;16578;53.266;7.920;2023-05-08T00:24:39;14.40;66.30
29663;DHT22;16578;53.266;7.920;2023-05-08T00:27:05;14.40;66.30
29663;DHT22;16578;53.266;7.920;2023-05-08T00:29:32;14.30;66.30
29663;DHT22;16578;53.266;7.920;2023-05-08T00:31:58;14.30;66.40
29663;DHT22;16578;53.266;7.920;2023-05-08T00:34:24;14.30;66.30
29663;DHT22;16578;53.266;7.920;2023-05-08T00:36:49;14.30;66.40
29663;DHT22;16578;53.266;7.920;2023-05-08T00:39:15;14.30;66.50
29663;DHT22;16578;53.266;7.920;2023-05-08T00:41:41;14.30;66.60
29663;DHT22;16578;53.266;7.920;2023-05-08T00:44:06;14.20;66.60
29663;DHT22;16578;53.266;7.920;2023-05-08T00:46:32;14.30;66.60
29663;DHT22;16578;53.266;7.920;2023-05-08T00:48:58;14.20;66.60
29663;DHT22;16578;53.266;7.920;2023-05-08T00:51:24;14.20;66.60
29663;DHT22;16578;53.266;7.920;2023-05-08T00:53:51;14.20;66.60
29663;DHT22;16578;53.266;7.920;2023-05-08T00:56:19;14.20;66.70
29663;DHT22;16578;53.266;7.920;2023-05-08T00:58:45;14.20;66.80
29663;DHT22;16578;53.266;7.920;2023-05-08T01:01:12;14.20;66.80
29663;DHT22;16578;53.266;7.920;2023-05-08T01:03:38;14.20;66.80
29663;DHT22;16578;53.266;7.920;2023-05-08T01:06:04;14.10;66.80
29663;DHT22;16578;53.266;7.920;2023-05-08T01:08:31;14.10;66.80
29663;DHT22;16578;53.266;7.920;2023-05-08T01:11:00;14.10;66.90
29663;DHT22;16578;53.266;7.920;2023-05-08T01:16:14;14.10;66.90
29663;DHT22;16578;53.266;7.920;2023-05-08T01:18:49;14.10;67.00
29663;DHT22;16578;53.266;7.920;2023-05-08T01:30:16;14.00;67.10
29663;DHT22;16578;53.266;7.920;2023-05-08T01:32:53;14.00;67.20
29663;DHT22;16578;53.266;7.920;2023-05-08T01:35:26;14.00;67.20
29663;DHT22;16578;53.266;7.920;2023-05-08T01:38:06;13.90;67.20
29663;DHT22;16578;53.266;7.920;2023-05-08T01:40:43;14.00;67.20
29663;DHT22;16578;53.266;7.920;2023-05-08T01:43:54;13.90;67.20
29663;DHT22;16578;53.266;7.920;2023-05-08T01:46:26;13.90;67.40
29663;DHT22;16578;53.266;7.920;2023-05-08T01:49:11;13.80;67.30
29663;DHT22;16578;53.266;7.920;2023-05-08T01:51:48;13.90;67.40
29663;DHT22;16578;53.266;7.920;2023-05-08T01:54:22;13.80;67.40
29663;DHT22;16578;53.266;7.920;2023-05-08T01:56:49;13.80;67.50
29663;DHT22;16578;53.266;7.920;2023-05-08T01:59:19;13.80;67.50
29663;DHT22;16578;53.266;7.920;2023-05-08T02:01:47;13.80;67.50
29663;DHT22;16578;53.266;7.920;2023-05-08T02:04:14;13.80;67.40
29663;DHT22;16578;53.266;7.920;2023-05-08T02:06:41;13.70;67.40
29663;DHT22;16578;53.266;7.920;2023-05-08T02:09:08;13.70;67.50
29663;DHT22;16578;53.266;7.920;2023-05-08T02:11:36;13.70;67.60
29663;DHT22;16578;53.266;7.920;2023-05-08T02:14:02;13.70;67.60
29663;DHT22;16578;53.266;7.920;2023-05-08T02:16:29;13.70;67.90
29663;DHT22;16578;53.266;7.920;2023-05-08T02:18:58;13.60;67.70
29663;DHT22;16578;53.266;7.920;2023-05-08T02:21:24;13.60;67.70
29663;DHT22;16578;53.266;7.920;2023-05-08T02:23:51;13.50;68.00
29663;DHT22;16578;53.266;7.920;2023-05-08T02:26:19;13.50;67.80
29663;DHT22;16578;53.266;7.920;2023-05-08T02:28:47;13.50;67.90
29663;DHT22;16578;53.266;7.920;2023-05-08T02:31:14;13.50;67.90
29663;DHT22;16578;53.266;7.920;2023-05-08T02:33:41;13.50;68.00
29663;DHT22;16578;53.266;7.920;2023-05-08T02:36:10;13.40;68.00
29663;DHT22;16578;53.266;7.920;2023-05-08T02:38:38;13.40;68.00
29663;DHT22;16578;53.266;7.920;2023-05-08T02:41:05;13.40;68.10
29663;DHT22;16578;53.266;7.920;2023-05-08T02:43:32;13.40;68.20
29663;DHT22;16578;53.266;7.920;2023-05-08T02:48:57;13.30;68.40
29663;DHT22;16578;53.266;7.920;2023-05-08T02:52:12;13.30;68.50
29663;DHT22;16578;53.266;7.920;2023-05-08T02:59:57;13.20;68.80
29663;DHT22;16578;53.266;7.920;2023-05-08T03:05:25;13.10;69.00
29663;DHT22;16578;53.266;7.920;2023-05-08T03:07:57;13.00;69.20
29663;DHT22;16578;53.266;7.920;2023-05-08T03:10:28;13.00;69.10
29663;DHT22;16578;53.266;7.920;2023-05-08T03:12:57;13.00;69.20
29663;DHT22;16578;53.266;7.920;2023-05-08T03:18:07;12.90;69.60
29663;DHT22;16578;53.266;7.920;2023-05-08T03:20:39;12.90;69.60
29663;DHT22;16578;53.266;7.920;2023-05-08T03:23:08;12.80;69.60
29663;DHT22;16578;53.266;7.920;2023-05-08T03:25:36;12.80;69.80
29663;DHT22;16578;53.266;7.920;2023-05-08T03:28:04;12.70;69.90
29663;DHT22;16578;53.266;7.920;2023-05-08T03:30:33;12.70;69.90
29663;DHT22;16578;53.266;7.920;2023-05-08T03:33:00;12.60;70.10
29663;DHT22;16578;53.266;7.920;2023-05-08T03:35:28;12.60;70.20
29663;DHT22;16578;53.266;7.920;2023-05-08T03:37:54;12.60;70.40
29663;DHT22;16578;53.266;7.920;2023-05-08T03:40:20;12.60;70.40
29663;DHT22;16578;53.266;7.920;2023-05-08T03:42:46;12.60;70.60
29663;DHT22;16578;53.266;7.920;2023-05-08T03:45:14;12.50;70.60
29663;DHT22;16578;53.266;7.920;2023-05-08T03:47:40;12.50;70.70
29663;DHT22;16578;53.266;7.920;2023-05-08T03:50:08;12.50;70.80
29663;DHT22;16578;53.266;7.920;2023-05-08T03:52:33;12.50;71.00
29663;DHT22;16578;53.266;7.920;2023-05-08T03:54:59;12.50;70.90
29663;DHT22;16578;53.266;7.920;2023-05-08T03:57:29;12.50;70.90
29663;DHT22;16578;53.266;7.920;2023-05-08T04:00:26;12.50;71.00
29663;DHT22;16578;53.266;7.920;2023-05-08T04:03:14;12.50;71.20
29663;DHT22;16578;53.266;7.920;2023-05-08T04:05:50;12.40;71.20
29663;DHT22;16578;53.266;7.920;2023-05-08T04:08:20;12.40;71.10
29663;DHT22;16578;53.266;7.920;2023-05-08T04:11:07;12.40;71.20
29663;DHT22;16578;53.266;7.920;2023-05-08T04:13:41;12.40;71.20
29663;DHT22;16578;53.266;7.920;2023-05-08T04:16:20;12.40;71.40
29663;DHT22;16578;53.266;7.920;2023-05-08T04:18:49;12.40;71.40
29663;DHT22;16578;53.266;7.920;2023-05-08T04:21:22;12.40;71.40
29663;DHT22;16578;53.266;7.920;2023-05-08T04:23:49;12.40;71.50
29663;DHT22;16578;53.266;7.920;2023-05-08T04:26:16;12.40;71.50
29663;DHT22;16578;53.266;7.920;2023-05-08T04:28:42;12.40;71.50
29663;DHT22;16578;53.266;7.920;2023-05-08T04:31:08;12.40;71.60
29663;DHT22;16578;53.266;7.920;2023-05-08T04:33:34;12.40;71.50
29663;DHT22;16578;53.266;7.920;2023-05-08T04:36:01;12.40;71.60
29663;DHT22;16578;53.266;7.920;2023-05-08T04:38:27;12.40;71.60
29663;DHT22;16578;53.266;7.920;2023-05-08T04:40:52;12.40;71.70
29663;DHT22;16578;53.266;7.920;2023-05-08T04:43:18;12.40;71.60
29663;DHT22;16578;53.266;7.920;2023-05-08T04:45:43;12.40;71.70
29663;DHT22;16578;53.266;7.920;2023-05-08T04:48:09;12.40;71.70
29663;DHT22;16578;53.266;7.920;2023-05-08T04:50:34;12.50;71.70
29663;DHT22;16578;53.266;7.920;2023-05-08T04:53:00;12.50;71.60
29663;DHT22;16578;53.266;7.920;2023-05-08T04:55:25;12.50;71.50
29663;DHT22;16578;53.266;7.920;2023-05-08T04:57:51;12.50;71.50
29663;DHT22;16578;53.266;7.920;2023-05-08T05:00:17;12.50;71.50
29663;DHT22;16578;53.266;7.920;2023-05-08T05:02:42;12.60;71.60
29663;DHT22;16578;53.266;7.920;2023-05-08T05:05:08;12.50;71.50
29663;DHT22;16578;53.266;7.920;2023-05-08T05:07:34;12.60;71.60
29663;DHT22;16578;53.266;7.920;2023-05-08T05:09:59;12.60;71.50
29663;DHT22;16578;53.266;7.920;2023-05-08T05:12:25;12.60;71.50
29663;DHT22;16578;53.266;7.920;2023-05-08T05:14:50;12.70;71.50
29663;DHT22;16578;53.266;7.920;2023-05-08T05:17:16;12.70;71.50
29663;DHT22;16578;53.266;7.920;2023-05-08T05:19:41;12.80;71.50
29663;DHT22;16578;53.266;7.920;2023-05-08T05:22:07;12.80;71.30
29663;DHT22;16578;53.266;7.920;2023-05-08T05:24:33;12.80;71.20
29663;DHT22;16578;53.266;7.920;2023-05-08T05:27:01;12.90;71.30
29663;DHT22;16578;53.266;7.920;2023-05-08T05:29:26;12.90;71.00
29663;DHT22;16578;53.266;7.920;2023-05-08T05:31:52;12.90;70.90
29663;DHT22;16578;53.266;7.920;2023-05-08T05:34:18;13.00;70.90
29663;DHT22;16578;53.266;7.920;2023-05-08T05:36:43;13.00;70.90
29663;DHT22;16578;53.266;7.920;2023-05-08T05:39:09;13.10;70.90
29663;DHT22;16578;53.266;7.920;2023-05-08T05:41:34;13.10;70.70
29663;DHT22;16578;53.266;7.920;2023-05-08T05:44:00;13.20;70.70
29663;DHT22;16578;53.266;7.920;2023-05-08T05:46:26;13.30;70.80
29663;DHT22;16578;53.266;7.920;2023-05-08T05:48:57;13.40;70.80
29663;DHT22;16578;53.266;7.920;2023-05-08T05:51:23;13.50;70.90
29663;DHT22;16578;53.266;7.920;2023-05-08T05:53:48;13.60;70.90
29663;DHT22;16578;53.266;7.920;2023-05-08T05:56:14;13.70;70.40
29663;DHT22;16578;53.266;7.920;2023-05-08T05:58:39;13.90;70.30
29663;DHT22;16578;53.266;7.920;2023-05-08T06:01:09;14.00;69.70
29663;DHT22;16578;53.266;7.920;2023-05-08T06:03:35;14.10;69.40
29663;DHT22;16578;53.266;7.920;2023-05-08T06:06:00;14.20;69.10
29663;DHT22;16578;53.266;7.920;2023-05-08T06:08:26;14.30;68.90
29663;DHT22;16578;53.266;7.920;2023-05-08T06:10:52;14.40;68.60
29663;DHT22;16578;53.266;7.920;2023-05-08T06:13:17;14.50;68.10
29663;DHT22;16578;53.266;7.920;2023-05-08T06:15:43;14.60;68.00
29663;DHT22;16578;53.266;7.920;2023-05-08T06:18:08;14.60;67.60
29663;DHT22;16578;53.266;7.920;2023-05-08T06:20:36;14.60;67.40
29663;DHT22;16578;53.266;7.920;2023-05-08T06:23:02;14.60;67.40
29663;DHT22;16578;53.266;7.920;2023-05-08T06:25:28;14.60;67.50
29663;DHT22;16578;53.266;7.920;2023-05-08T06:27:53;14.70;67.50
29663;DHT22;16578;53.266;7.920;2023-05-08T06:30:19;14.70;67.40
29663;DHT22;16578;53.266;7.920;2023-05-08T06:32:44;14.80;67.60
29663;DHT22;16578;53.266;7.920;2023-05-08T06:35:10;14.80;67.60
29663;DHT22;16578;53.266;7.920;2023-05-08T06:37:36;14.90;67.70
29663;DHT22;16578;53.266;7.920;2023-05-08T06:40:02;15.00;67.20
29663;DHT22;16578;53.266;7.920;2023-05-08T06:42:28;15.10;67.00
29663;DHT22;16578;53.266;7.920;2023-05-08T06:44:53;15.20;66.90
29663;DHT22;16578;53.266;7.920;2023-05-08T06:47:19;15.30;66.60
29663;DHT22;16578;53.266;7.920;2023-05-08T06:49:45;15.40;66.30
29663;DHT22;16578;53.266;7.920;2023-05-08T06:52:10;15.50;66.30
29663;DHT22;16578;53.266;7.920;2023-05-08T06:54:36;15.60;66.50
29663;DHT22;16578;53.266;7.920;2023-05-08T06:57:01;15.70;66.60
29663;DHT22;16578;53.266;7.920;2023-05-08T06:59:27;15.80;66.10
29663;DHT22;16578;53.266;7.920;2023-05-08T07:01:53;15.90;66.00
29663;DHT22;16578;53.266;7.920;2023-05-08T07:04:18;16.00;65.50
29663;DHT22;16578;53.266;7.920;2023-05-08T07:06:44;16.00;65.10
29663;DHT22;16578;53.266;7.920;2023-05-08T07:09:09;16.10;64.70
29663;DHT22;16578;53.266;7.920;2023-05-08T07:11:35;16.10;64.10
29663;DHT22;16578;53.266;7.920;2023-05-08T07:14:01;16.20;64.30
29663;DHT22;16578;53.266;7.920;2023-05-08T07:16:27;16.20;64.10
29663;DHT22;16578;53.266;7.920;2023-05-08T07:18:52;16.30;64.50
29663;DHT22;16578;53.266;7.920;2023-05-08T07:21:18;16.30;64.60
29663;DHT22;16578;53.266;7.920;2023-05-08T07:23:44;16.40;64.40
29663;DHT22;16578;53.266;7.920;2023-05-08T07:26:10;16.50;64.10
29663;DHT22;16578;53.266;7.920;2023-05-08T07:28:35;16.50;64.10
29663;DHT22;16578;53.266;7.920;2023-05-08T07:31:04;16.60;64.20
29663;DHT22;16578;53.266;7.920;2023-05-08T07:33:31;16.70;63.90
29663;DHT22;16578;53.266;7.920;2023-05-08T07:35:58;16.70;63.70
29663;DHT22;16578;53.266;7.920;2023-05-08T07:38:24;16.80;63.40
29663;DHT22;16578;53.266;7.920;2023-05-08T07:40:49;16.80;63.10
29663;DHT22;16578;53.266;7.920;2023-05-08T07:43:16;16.90;62.90
29663;DHT22;16578;53.266;7.920;2023-05-08T07:45:41;16.90;62.90
29663;DHT22;16578;53.266;7.920;2023-05-08T07:48:07;17.00;62.90
29663;DHT22;16578;53.266;7.920;2023-05-08T07:50:33;17.10;63.70
29663;DHT22;16578;53.266;7.920;2023-05-08T07:52:58;17.10;62.40
29663;DHT22;16578;53.266;7.920;2023-05-08T07:55:24;17.10;62.10
29663;DHT22;16578;53.266;7.920;2023-05-08T07:57:50;17.10;61.80
29663;DHT22;16578;53.266;7.920;2023-05-08T08:00:16;17.10;62.20
29663;DHT22;16578;53.266;7.920;2023-05-08T08:02:42;17.20;62.60
29663;DHT22;16578;53.266;7.920;2023-05-08T08:05:08;17.30;62.90
29663;DHT22;16578;53.266;7.920;2023-05-08T08:07:34;17.30;62.50
29663;DHT22;16578;53.266;7.920;2023-05-08T08:10:00;17.40;62.60
29663;DHT22;16578;53.266;7.920;2023-05-08T08:12:26;17.50;62.70
29663;DHT22;16578;53.266;7.920;2023-05-08T08:14:52;17.50;62.70
29663;DHT22;16578;53.266;7.920;2023-05-08T08:17:18;17.60;62.70
29663;DHT22;16578;53.266;7.920;2023-05-08T08:19:43;17.70;62.60
29663;DHT22;16578;53.266;7.920;2023-05-08T08:22:09;17.70;62.50
29663;DHT22;16578;53.266;7.920;2023-05-08T08:24:35;17.80;62.30
29663;DHT22;16578;53.266;7.920;2023-05-08T08:27:01;17.90;62.10
29663;DHT22;16578;53.266;7.920;2023-05-08T08:29:26;17.90;61.80
29663;DHT22;16578;53.266;7.920;2023-05-08T08:31:52;18.00;61.70
29663;DHT22;16578;53.266;7.920;2023-05-08T08:34:17;18.00;61.80
29663;DHT22;16578;53.266;7.920;2023-05-08T08:36:44;18.00;61.30
29663;DHT22;16578;53.266;7.920;2023-05-08T08:39:09;18.10;61.40
29663;DHT22;16578;53.266;7.920;2023-05-08T08:41:37;18.10;61.70
29663;DHT22;16578;53.266;7.920;2023-05-08T08:44:04;18.10;62.00
29663;DHT22;16578;53.266;7.920;2023-05-08T08:46:30;18.10;62.00
29663;DHT22;16578;53.266;7.920;2023-05-08T08:48:57;18.20;61.90
29663;DHT22;16578;53.266;7.920;2023-05-08T08:51:49;18.30;61.60
29663;DHT22;16578;53.266;7.920;2023-05-08T08:54:22;18.30;61.60
29663;DHT22;16578;53.266;7.920;2023-05-08T08:56:49;18.40;61.30
29663;DHT22;16578;53.266;7.920;2023-05-08T08:59:16;18.50;61.50
29663;DHT22;16578;53.266;7.920;2023-05-08T09:01:44;18.50;60.80
29663;DHT22;16578;53.266;7.920;2023-05-08T09:04:12;18.50;60.90
29663;DHT22;16578;53.266;7.920;2023-05-08T09:06:38;18.60;60.70
29663;DHT22;16578;53.266;7.920;2023-05-08T09:09:05;18.50;60.50
29663;DHT22;16578;53.266;7.920;2023-05-08T09:11:31;18.50;60.70
29663;DHT22;16578;53.266;7.920;2023-05-08T09:13:57;18.60;60.90
29663;DHT22;16578;53.266;7.920;2023-05-08T09:16:24;18.60;61.20
29663;DHT22;16578;53.266;7.920;2023-05-08T09:18:49;18.70;60.90
29663;DHT22;16578;53.266;7.920;2023-05-08T09:21:15;18.70;61.10
29663;DHT22;16578;53.266;7.920;2023-05-08T09:24:04;18.80;61.30
29663;DHT22;16578;53.266;7.920;2023-05-08T09:26:38;18.90;61.30
29663;DHT22;16578;53.266;7.920;2023-05-08T09:29:19;19.00;61.20
29663;DHT22;16578;53.266;7.920;2023-05-08T09:31:50;19.00;61.40
29663;DHT22;16578;53.266;7.920;2023-05-08T09:34:29;19.10;60.60
29663;DHT22;16578;53.266;7.920;2023-05-08T09:39:30;19.20;59.50
29663;DHT22;16578;53.266;7.920;2023-05-08T09:41:56;19.20;59.80
29663;DHT22;16578;53.266;7.920;2023-05-08T09:44:23;19.30;60.00
29663;DHT22;16578;53.266;7.920;2023-05-08T09:46:48;19.30;59.70
29663;DHT22;16578;53.266;7.920;2023-05-08T09:49:16;19.30;59.80
29663;DHT22;16578;53.266;7.920;2023-05-08T09:51:51;19.40;59.80
29663;DHT22;16578;53.266;7.920;2023-05-08T09:54:18;19.40;59.20
29663;DHT22;16578;53.266;7.920;2023-05-08T09:56:44;19.30;59.10
29663;DHT22;16578;53.266;7.920;2023-05-08T09:59:27;19.40;59.20
29663;DHT22;16578;53.266;7.920;2023-05-08T10:01:53;19.40;59.40
29663;DHT22;16578;53.266;7.920;2023-05-08T10:04:36;19.40;59.80
29663;DHT22;16578;53.266;7.920;2023-05-08T10:07:03;19.50;59.60
29663;DHT22;16578;53.266;7.920;2023-05-08T10:09:28;19.50;59.40
29663;DHT22;16578;53.266;7.920;2023-05-08T10:11:54;19.50;59.50
29663;DHT22;16578;53.266;7.920;2023-05-08T10:14:23;19.60;59.60
29663;DHT22;16578;53.266;7.920;2023-05-08T10:16:51;19.70;59.70
29663;DHT22;16578;53.266;7.920;2023-05-08T10:19:24;19.80;59.90
29663;DHT22;16578;53.266;7.920;2023-05-08T10:21:54;19.90;59.70
29663;DHT22;16578;53.266;7.920;2023-05-08T10:24:31;20.00;59.50
29663;DHT22;16578;53.266;7.920;2023-05-08T10:29:46;20.20;59.70
29663;DHT22;16578;53.266;7.920;2023-05-08T10:32:16;20.40;59.70
29663;DHT22;16578;53.266;7.920;2023-05-08T10:34:44;20.50;60.10
29663;DHT22;16578;53.266;7.920;2023-05-08T10:37:11;20.60;59.00
29663;DHT22;16578;53.266;7.920;2023-05-08T10:39:37;20.70;58.60
29663;DHT22;16578;53.266;7.920;2023-05-08T10:42:04;20.70;58.10
29663;DHT22;16578;53.266;7.920;2023-05-08T10:44:31;20.80;58.00
29663;DHT22;16578;53.266;7.920;2023-05-08T10:47:30;20.80;58.20
29663;DHT22;16578;53.266;7.920;2023-05-08T10:50:10;20.80;57.90
29663;DHT22;16578;53.266;7.920;2023-05-08T10:52:49;20.80;57.70
29663;DHT22;16578;53.266;7.920;2023-05-08T10:55:28;20.80;58.50
29663;DHT22;16578;53.266;7.920;2023-05-08T10:58:05;20.90;58.20
29663;DHT22;16578;53.266;7.920;2023-05-08T11:03:22;21.00;58.20
29663;DHT22;16578;53.266;7.920;2023-05-08T11:05:51;21.00;57.80
29663;DHT22;16578;53.266;7.920;2023-05-08T11:08:19;21.00;57.70
29663;DHT22;16578;53.266;7.920;2023-05-08T11:13:45;21.10;57.80
29663;DHT22;16578;53.266;7.920;2023-05-08T11:16:12;21.10;57.80
29663;DHT22;16578;53.266;7.920;2023-05-08T11:22:20;21.10;57.30
29663;DHT22;16578;53.266;7.920;2023-05-08T11:24:48;21.10;57.20
29663;DHT22;16578;53.266;7.920;2023-05-08T11:27:14;21.10;57.50
29663;DHT22;16578;53.266;7.920;2023-05-08T11:29:40;21.10;57.50
29663;DHT22;16578;53.266;7.920;2023-05-08T11:32:06;21.10;57.60
29663;DHT22;16578;53.266;7.920;2023-05-08T11:37:10;21.20;57.30
29663;DHT22;16578;53.266;7.920;2023-05-08T11:39:36;21.20;57.50
29663;DHT22;16578;53.266;7.920;2023-05-08T11:45:07;21.30;57.00
29663;DHT22;16578;53.266;7.920;2023-05-08T11:47:59;21.20;57.10
29663;DHT22;16578;53.266;7.920;2023-05-08T11:50:25;21.30;56.50
29663;DHT22;16578;53.266;7.920;2023-05-08T11:52:50;21.20;56.70
29663;DHT22;16578;53.266;7.920;2023-05-08T11:55:16;21.30;57.00
29663;DHT22;16578;53.266;7.920;2023-05-08T11:57:43;21.30;56.90
29663;DHT22;16578;53.266;7.920;2023-05-08T12:00:10;21.30;56.50
29663;DHT22;16578;53.266;7.920;2023-05-08T12:02:41;21.30;56.80
29663;DHT22;16578;53.266;7.920;2023-05-08T12:05:08;21.30;56.90
29663;DHT22;16578;53.266;7.920;2023-05-08T12:07:44;21.40;57.00
29663;DHT22;16578;53.266;7.920;2023-05-08T12:10:10;21.40;56.60
29663;DHT22;16578;53.266;7.920;2023-05-08T12:12:37;21.40;56.70
29663;DHT22;16578;53.266;7.920;2023-05-08T12:15:11;21.40;56.80
29663;DHT22;16578;53.266;7.920;2023-05-08T12:17:37;21.50;56.60
29663;DHT22;16578;53.266;7.920;2023-05-08T12:20:16;21.50;56.80
29663;DHT22;16578;53.266;7.920;2023-05-08T12:22:49;21.60;56.30
29663;DHT22;16578;53.266;7.920;2023-05-08T12:25:16;21.60;56.50
29663;DHT22;16578;53.266;7.920;2023-05-08T12:27:43;21.60;56.70
29663;DHT22;16578;53.266;7.920;2023-05-08T12:30:10;21.60;56.80
29663;DHT22;16578;53.266;7.920;2023-05-08T12:32:37;21.70;56.50
29663;DHT22;16578;53.266;7.920;2023-05-08T12:35:06;21.70;56.70
29663;DHT22;16578;53.266;7.920;2023-05-08T12:37:32;21.80;56.50
29663;DHT22;16578;53.266;7.920;2023-05-08T12:39:57;21.80;56.80
29663;DHT22;16578;53.266;7.920;2023-05-08T12:42:41;21.80;56.90
29663;DHT22;16578;53.266;7.920;2023-05-08T12:45:07;21.90;56.50
29663;DHT22;16578;53.266;7.920;2023-05-08T12:47:33;21.90;56.60
29663;DHT22;16578;53.266;7.920;2023-05-08T12:49:58;21.90;56.50
29663;DHT22;16578;53.266;7.920;2023-05-08T12:52:24;22.00;56.60
29663;DHT22;16578;53.266;7.920;2023-05-08T12:54:49;22.00;56.40
29663;DHT22;16578;53.266;7.920;2023-05-08T12:57:16;22.00;56.50
29663;DHT22;16578;53.266;7.920;2023-05-08T12:59:43;22.00;56.70
29663;DHT22;16578;53.266;7.920;2023-05-08T13:02:17;22.00;56.30
29663;DHT22;16578;53.266;7.920;2023-05-08T13:04:43;22.10;56.50
29663;DHT22;16578;53.266;7.920;2023-05-08T13:07:09;22.10;56.50
29663;DHT22;16578;53.266;7.920;2023-05-08T13:09:34;22.10;56.60
29663;DHT22;16578;53.266;7.920;2023-05-08T13:12:00;22.20;56.60
29663;DHT22;16578;53.266;7.920;2023-05-08T13:14:26;22.20;56.40
29663;DHT22;16578;53.266;7.920;2023-05-08T13:16:51;22.20;56.30
29663;DHT22;16578;53.266;7.920;2023-05-08T13:19:17;22.30;56.40
29663;DHT22;16578;53.266;7.920;2023-05-08T13:21:43;22.30;56.30
29663;DHT22;16578;53.266;7.920;2023-05-08T13:24:12;22.30;56.40
29663;DHT22;16578;53.266;7.920;2023-05-08T13:26:38;22.40;56.40
29663;DHT22;16578;53.266;7.920;2023-05-08T13:29:03;22.40;55.90
29663;DHT22;16578;53.266;7.920;2023-05-08T13:31:29;22.40;55.60
29663;DHT22;16578;53.266;7.920;2023-05-08T13:33:55;22.40;55.70
29663;DHT22;16578;53.266;7.920;2023-05-08T13:36:20;22.40;56.10
29663;DHT22;16578;53.266;7.920;2023-05-08T13:38:46;22.50;56.10
29663;DHT22;16578;53.266;7.920;2023-05-08T13:41:11;22.50;56.00
29663;DHT22;16578;53.266;7.920;2023-05-08T13:43:37;22.50;56.10
29663;DHT22;16578;53.266;7.920;2023-05-08T13:46:03;22.50;55.80
29663;DHT22;16578;53.266;7.920;2023-05-08T13:48:28;22.60;55.90
29663;DHT22;16578;53.266;7.920;2023-05-08T13:50:54;22.60;55.50
29663;DHT22;16578;53.266;7.920;2023-05-08T13:53:19;22.60;55.40
29663;DHT22;16578;53.266;7.920;2023-05-08T13:55:45;22.60;55.10
29663;DHT22;16578;53.266;7.920;2023-05-08T13:58:10;22.60;55.10
29663;DHT22;16578;53.266;7.920;2023-05-08T14:00:36;22.70;55.30
29663;DHT22;16578;53.266;7.920;2023-05-08T14:03:02;22.70;55.40
29663;DHT22;16578;53.266;7.920;2023-05-08T14:05:27;22.70;55.10
29663;DHT22;16578;53.266;7.920;2023-05-08T14:07:53;22.80;55.30
29663;DHT22;16578;53.266;7.920;2023-05-08T14:10:18;22.80;55.30
29663;DHT22;16578;53.266;7.920;2023-05-08T14:12:44;22.80;55.30
29663;DHT22;16578;53.266;7.920;2023-05-08T14:15:11;22.90;55.50
29663;DHT22;16578;53.266;7.920;2023-05-08T14:17:36;22.90;55.40
29663;DHT22;16578;53.266;7.920;2023-05-08T14:20:02;22.90;55.30
29663;DHT22;16578;53.266;7.920;2023-05-08T14:22:28;23.00;54.90
29663;DHT22;16578;53.266;7.920;2023-05-08T14:24:54;23.00;55.00
29663;DHT22;16578;53.266;7.920;2023-05-08T14:27:19;23.00;55.10
29663;DHT22;16578;53.266;7.920;2023-05-08T14:29:45;23.10;55.10
29663;DHT22;16578;53.266;7.920;2023-05-08T14:32:11;23.20;55.10
29663;DHT22;16578;53.266;7.920;2023-05-08T14:34:36;23.20;54.90
29663;DHT22;16578;53.266;7.920;2023-05-08T14:37:02;23.20;54.80
29663;DHT22;16578;53.266;7.920;2023-05-08T14:39:28;23.30;54.80
29663;DHT22;16578;53.266;7.920;2023-05-08T14:41:53;23.30;54.70
29663;DHT22;16578;53.266;7.920;2023-05-08T14:44:19;23.30;54.60
29663;DHT22;16578;53.266;7.920;2023-05-08T14:46:45;23.40;54.40
29663;DHT22;16578;53.266;7.920;2023-05-08T14:49:10;23.40;54.30
29663;DHT22;16578;53.266;7.920;2023-05-08T14:51:36;23.40;54.20
29663;DHT22;16578;53.266;7.920;2023-05-08T14:54:01;23.40;54.30
29663;DHT22;16578;53.266;7.920;2023-05-08T14:56:27;23.40;54.30
29663;DHT22;16578;53.266;7.920;2023-05-08T14:58:52;23.40;54.40
29663;DHT22;16578;53.266;7.920;2023-05-08T15:01:20;23.40;54.00
29663;DHT22;16578;53.266;7.920;2023-05-08T15:03:46;23.40;53.70
29663;DHT22;16578;53.266;7.920;2023-05-08T15:06:18;23.40;53.70
29663;DHT22;16578;53.266;7.920;2023-05-08T15:08:44;23.40;53.90
29663;DHT22;16578;53.266;7.920;2023-05-08T15:11:09;23.40;54.30
29663;DHT22;16578;53.266;7.920;2023-05-08T15:13:35;23.50;54.10
29663;DHT22;16578;53.266;7.920;2023-05-08T15:16:00;23.50;54.10
29663;DHT22;16578;53.266;7.920;2023-05-08T15:18:26;23.60;54.10
29663;DHT22;16578;53.266;7.920;2023-05-08T15:20:53;23.50;53.70
29663;DHT22;16578;53.266;7.920;2023-05-08T15:23:18;23.60;53.70
29663;DHT22;16578;53.266;7.920;2023-05-08T15:25:45;23.60;53.60
29663;DHT22;16578;53.266;7.920;2023-05-08T15:28:10;23.60;53.80
29663;DHT22;16578;53.266;7.920;2023-05-08T15:30:36;23.60;53.70
29663;DHT22;16578;53.266;7.920;2023-05-08T15:33:02;23.60;53.80
29663;DHT22;16578;53.266;7.920;2023-05-08T15:35:27;23.60;53.70
29663;DHT22;16578;53.266;7.920;2023-05-08T15:37:53;23.60;53.70
29663;DHT22;16578;53.266;7.920;2023-05-08T15:40:18;23.60;53.70
29663;DHT22;16578;53.266;7.920;2023-05-08T15:42:44;23.60;53.80
29663;DHT22;16578;53.266;7.920;2023-05-08T15:45:09;23.70;53.90
29663;DHT22;16578;53.266;7.920;2023-05-08T15:47:35;23.70;53.70
29663;DHT22;16578;53.266;7.920;2023-05-08T15:50:00;23.70;53.40
29663;DHT22;16578;53.266;7.920;2023-05-08T15:52:26;23.70;53.40
29663;DHT22;16578;53.266;7.920;2023-05-08T15:54:51;23.60;53.20
29663;DHT22;16578;53.266;7.920;2023-05-08T15:57:17;23.70;53.30
29663;DHT22;16578;53.266;7.920;2023-05-08T15:59:42;23.70;53.40
29663;DHT22;16578;53.266;7.920;2023-05-08T16:02:08;23.70;53.50
29663;DHT22;16578;53.266;7.920;2023-05-08T16:04:34;23.60;53.30
29663;DHT22;16578;53.266;7.920;2023-05-08T16:07:00;23.70;53.60
29663;DHT22;16578;53.266;7.920;2023-05-08T16:09:26;23.70;53.90
29663;DHT22;16578;53.266;7.920;2023-05-08T16:11:52;23.70;54.00
29663;DHT22;16578;53.266;7.920;2023-05-08T16:14:18;23.70;53.90
29663;DHT22;16578;53.266;7.920;2023-05-08T16:16:44;23.80;53.80
29663;DHT22;16578;53.266;7.920;2023-05-08T16:19:10;23.80;53.70